sensor_id;sensor_type;location;lat;lon;timestamp;temperature;humidity
23120;DHT22;11729;50.836;4.330;2022-09-09T00:02:22;16.30;99.90
23120;DHT22;11729;50.836;4.330;2022-09-09T00:04:56;16.30;99.90
23120;DHT22;11729;50.836;4.330;2022-09-09T00:07:39;16.30;99.90
23120;DHT22;11729;50.836;4.330;2022-09-09T00:10:17;16.30;99.90
23120;DHT22;11729;50.836;4.330;2022-09-09T00:12:55;16.40;99.90
23120;DHT22;11729;50.836;4.330;2022-09-09T00:15:23;16.40;99.90
23120;DHT22;11729;50.836;4.330;2022-09-09T00:17:59;16.40;99.90
23120;DHT22;11729;50.836;4.330;2022-09-09T00:20:43;16.30;99.90
23120;DHT22;11729;50.836;4.330;2022-09-09T00:28:27;16.30;99.90
23120;DHT22;11729;50.836;4.330;2022-09-09T00:30:55;16.40;99.90
23120;DHT22;11729;50.836;4.330;2022-09-09T00:33:23;16.50;99.90
23120;DHT22;11729;50.836;4.330;2022-09-09T00:35:53;16.50;99.90
23120;DHT22;11729;50.836;4.330;2022-09-09T00:41:02;16.60;99.90
23120;DHT22;11729;50.836;4.330;2022-09-09T00:43:30;16.50;99.90
23120;DHT22;11729;50.836;4.330;2022-09-09T00:56:39;16.40;99.90
23120;DHT22;11729;50.836;4.330;2022-09-09T01:01:35;16.60;99.90
23120;DHT22;11729;50.836;4.330;2022-09-09T01:04:01;16.60;99.90
23120;DHT22;11729;50.836;4.330;2022-09-09T01:06:38;16.60;99.90
23120;DHT22;11729;50.836;4.330;2022-09-09T01:11:43;16.60;99.90
23120;DHT22;11729;50.836;4.330;2022-09-09T01:14:41;16.60;99.90
23120;DHT22;11729;50.836;4.330;2022-09-09T01:17:15;16.50;99.90
23120;DHT22;11729;50.836;4.330;2022-09-09T01:24:54;16.70;99.90
23120;DHT22;11729;50.836;4.330;2022-09-09T01:27:21;16.70;99.90
23120;DHT22;11729;50.836;4.330;2022-09-09T01:29:46;16.60;99.90
23120;DHT22;11729;50.836;4.330;2022-09-09T01:34:57;16.60;99.90
23120;DHT22;11729;50.836;4.330;2022-09-09T01:37:23;16.60;99.90
23120;DHT22;11729;50.836;4.330;2022-09-09T01:39:48;16.50;99.90
23120;DHT22;11729;50.836;4.330;2022-09-09T01:42:14;16.50;99.90
23120;DHT22;11729;50.836;4.330;2022-09-09T01:44:40;16.50;99.90
23120;DHT22;11729;50.836;4.330;2022-09-09T01:47:06;16.50;99.90
23120;DHT22;11729;50.836;4.330;2022-09-09T01:49:32;16.40;99.90
23120;DHT22;11729;50.836;4.330;2022-09-09T01:52:00;16.50;99.90
23120;DHT22;11729;50.836;4.330;2022-09-09T01:54:28;16.50;99.90
23120;DHT22;11729;50.836;4.330;2022-09-09T01:57:00;16.50;99.90
23120;DHT22;11729;50.836;4.330;2022-09-09T02:04:44;16.30;99.90
23120;DHT22;11729;50.836;4.330;2022-09-09T02:07:24;16.30;99.90
23120;DHT22;11729;50.836;4.330;2022-09-09T02:09:57;16.30;99.90
23120;DHT22;11729;50.836;4.330;2022-09-09T02:12:24;16.30;99.90
23120;DHT22;11729;50.836;4.330;2022-09-09T02:14:52;16.30;99.90
23120;DHT22;11729;50.836;4.330;2022-09-09T02:17:31;16.40;99.90
23120;DHT22;11729;50.836;4.330;2022-09-09T02:20:02;16.40;99.90
23120;DHT22;11729;50.836;4.330;2022-09-09T02:22:28;16.40;99.90
23120;DHT22;11729;50.836;4.330;2022-09-09T02:24:56;16.40;99.90
23120;DHT22;11729;50.836;4.330;2022-09-09T02:27:23;16.30;99.90
23120;DHT22;11729;50.836;4.330;2022-09-09T02:29:49;16.30;99.90
23120;DHT22;11729;50.836;4.330;2022-09-09T02:32:17;16.30;99.90
23120;DHT22;11729;50.836;4.330;2022-09-09T02:34:45;16.40;99.90
23120;DHT22;11729;50.836;4.330;2022-09-09T02:37:11;16.40;99.90
23120;DHT22;11729;50.836;4.330;2022-09-09T02:39:38;16.50;99.90
23120;DHT22;11729;50.836;4.330;2022-09-09T02:42:04;16.50;99.90
23120;DHT22;11729;50.836;4.330;2022-09-09T02:44:29;16.40;99.90
23120;DHT22;11729;50.836;4.330;2022-09-09T02:52:02;16.40;99.90
23120;DHT22;11729;50.836;4.330;2022-09-09T02:54:31;16.40;99.90
23120;DHT22;11729;50.836;4.330;2022-09-09T02:57:01;16.40;99.90
23120;DHT22;11729;50.836;4.330;2022-09-09T02:59:28;16.40;99.90
23120;DHT22;11729;50.836;4.330;2022-09-09T03:01:55;16.30;99.90
23120;DHT22;11729;50.836;4.330;2022-09-09T03:04:21;16.30;99.90
23120;DHT22;11729;50.836;4.330;2022-09-09T03:06:46;16.30;99.90
23120;DHT22;11729;50.836;4.330;2022-09-09T03:09:12;16.30;99.90
23120;DHT22;11729;50.836;4.330;2022-09-09T03:11:38;16.30;99.90
23120;DHT22;11729;50.836;4.330;2022-09-09T03:14:04;16.40;99.90
23120;DHT22;11729;50.836;4.330;2022-09-09T03:16:29;16.30;99.90
23120;DHT22;11729;50.836;4.330;2022-09-09T03:18:55;16.40;99.90
23120;DHT22;11729;50.836;4.330;2022-09-09T03:21:20;16.40;99.90
23120;DHT22;11729;50.836;4.330;2022-09-09T03:23:46;16.30;99.90
23120;DHT22;11729;50.836;4.330;2022-09-09T03:26:12;16.30;99.90
23120;DHT22;11729;50.836;4.330;2022-09-09T03:28:37;16.20;99.90
23120;DHT22;11729;50.836;4.330;2022-09-09T03:31:03;16.30;99.90
23120;DHT22;11729;50.836;4.330;2022-09-09T03:33:29;16.30;99.90
23120;DHT22;11729;50.836;4.330;2022-09-09T03:35:55;16.30;99.90
23120;DHT22;11729;50.836;4.330;2022-09-09T03:38:24;16.30;99.90
23120;DHT22;11729;50.836;4.330;2022-09-09T03:40:51;16.20;99.90
23120;DHT22;11729;50.836;4.330;2022-09-09T03:43:16;16.30;99.90
23120;DHT22;11729;50.836;4.330;2022-09-09T03:45:45;16.30;99.90
23120;DHT22;11729;50.836;4.330;2022-09-09T03:48:12;16.30;99.90
23120;DHT22;11729;50.836;4.330;2022-09-09T03:50:38;16.30;99.90
23120;DHT22;11729;50.836;4.330;2022-09-09T03:53:03;16.20;99.90
23120;DHT22;11729;50.836;4.330;2022-09-09T03:55:31;16.30;99.90
23120;DHT22;11729;50.836;4.330;2022-09-09T03:57:57;16.30;99.90
23120;DHT22;11729;50.836;4.330;2022-09-09T04:00:23;16.30;99.90
23120;DHT22;11729;50.836;4.330;2022-09-09T04:02:49;16.30;99.90
23120;DHT22;11729;50.836;4.330;2022-09-09T04:05:15;16.30;99.90
23120;DHT22;11729;50.836;4.330;2022-09-09T04:07:40;16.40;99.90
23120;DHT22;11729;50.836;4.330;2022-09-09T04:10:06;16.40;99.90
23120;DHT22;11729;50.836;4.330;2022-09-09T04:12:32;16.40;99.90
23120;DHT22;11729;50.836;4.330;2022-09-09T04:14:58;16.50;99.90
23120;DHT22;11729;50.836;4.330;2022-09-09T04:17:23;16.40;99.90
23120;DHT22;11729;50.836;4.330;2022-09-09T04:19:49;16.50;99.90
23120;DHT22;11729;50.836;4.330;2022-09-09T04:22:14;16.50;99.90
23120;DHT22;11729;50.836;4.330;2022-09-09T04:24:41;16.50;99.90
23120;DHT22;11729;50.836;4.330;2022-09-09T04:27:06;16.30;99.90
23120;DHT22;11729;50.836;4.330;2022-09-09T04:29:32;16.30;99.90
23120;DHT22;11729;50.836;4.330;2022-09-09T04:31:58;16.40;99.90
23120;DHT22;11729;50.836;4.330;2022-09-09T04:34:23;16.30;99.90
23120;DHT22;11729;50.836;4.330;2022-09-09T04:36:50;16.30;99.90
23120;DHT22;11729;50.836;4.330;2022-09-09T04:39:17;16.30;99.90
23120;DHT22;11729;50.836;4.330;2022-09-09T04:41:42;16.30;99.90
23120;DHT22;11729;50.836;4.330;2022-09-09T04:44:08;16.40;99.90
23120;DHT22;11729;50.836;4.330;2022-09-09T04:46:33;16.50;99.90
23120;DHT22;11729;50.836;4.330;2022-09-09T04:49:02;16.60;99.90
23120;DHT22;11729;50.836;4.330;2022-09-09T04:51:27;16.40;99.90
23120;DHT22;11729;50.836;4.330;2022-09-09T04:53:53;16.40;99.90
23120;DHT22;11729;50.836;4.330;2022-09-09T04:56:19;16.30;99.90
23120;DHT22;11729;50.836;4.330;2022-09-09T04:58:44;16.30;99.90
23120;DHT22;11729;50.836;4.330;2022-09-09T05:01:20;16.30;99.90
23120;DHT22;11729;50.836;4.330;2022-09-09T05:03:47;16.20;99.90
23120;DHT22;11729;50.836;4.330;2022-09-09T05:06:13;16.40;99.90
23120;DHT22;11729;50.836;4.330;2022-09-09T05:08:40;16.40;99.90
23120;DHT22;11729;50.836;4.330;2022-09-09T05:11:19;16.20;99.90
23120;DHT22;11729;50.836;4.330;2022-09-09T05:13:45;16.10;99.90
23120;DHT22;11729;50.836;4.330;2022-09-09T05:16:12;16.10;99.90
23120;DHT22;11729;50.836;4.330;2022-09-09T05:18:38;16.10;99.90
23120;DHT22;11729;50.836;4.330;2022-09-09T05:21:04;16.10;99.90
23120;DHT22;11729;50.836;4.330;2022-09-09T05:23:29;16.30;99.90
23120;DHT22;11729;50.836;4.330;2022-09-09T05:25:55;16.30;99.90
23120;DHT22;11729;50.836;4.330;2022-09-09T05:28:22;16.30;99.90
23120;DHT22;11729;50.836;4.330;2022-09-09T05:30:54;16.40;99.90
23120;DHT22;11729;50.836;4.330;2022-09-09T05:33:20;16.40;99.90
23120;DHT22;11729;50.836;4.330;2022-09-09T05:35:46;16.50;99.90
23120;DHT22;11729;50.836;4.330;2022-09-09T05:38:11;16.50;99.90
23120;DHT22;11729;50.836;4.330;2022-09-09T05:40:37;16.50;99.90
23120;DHT22;11729;50.836;4.330;2022-09-09T05:43:03;16.50;99.90
23120;DHT22;11729;50.836;4.330;2022-09-09T05:45:28;16.50;99.90
23120;DHT22;11729;50.836;4.330;2022-09-09T05:47:54;16.60;99.90
23120;DHT22;11729;50.836;4.330;2022-09-09T05:50:20;16.60;99.90
23120;DHT22;11729;50.836;4.330;2022-09-09T05:52:45;16.70;99.90
23120;DHT22;11729;50.836;4.330;2022-09-09T05:55:11;16.70;99.90
23120;DHT22;11729;50.836;4.330;2022-09-09T05:57:36;16.70;99.90
23120;DHT22;11729;50.836;4.330;2022-09-09T06:00:02;16.80;99.90
23120;DHT22;11729;50.836;4.330;2022-09-09T06:02:27;16.80;99.90
23120;DHT22;11729;50.836;4.330;2022-09-09T06:04:53;16.70;99.90
23120;DHT22;11729;50.836;4.330;2022-09-09T06:07:20;16.80;99.90
23120;DHT22;11729;50.836;4.330;2022-09-09T06:09:45;16.90;99.90
23120;DHT22;11729;50.836;4.330;2022-09-09T06:12:11;17.10;99.90
23120;DHT22;11729;50.836;4.330;2022-09-09T06:14:36;17.40;99.90
23120;DHT22;11729;50.836;4.330;2022-09-09T06:17:02;17.60;99.90
23120;DHT22;11729;50.836;4.330;2022-09-09T06:19:27;17.90;99.90
23120;DHT22;11729;50.836;4.330;2022-09-09T06:21:53;17.90;99.90
23120;DHT22;11729;50.836;4.330;2022-09-09T06:24:18;17.90;99.90
23120;DHT22;11729;50.836;4.330;2022-09-09T06:26:45;17.90;99.90
23120;DHT22;11729;50.836;4.330;2022-09-09T06:29:10;17.90;99.90
23120;DHT22;11729;50.836;4.330;2022-09-09T06:31:36;17.80;99.90
23120;DHT22;11729;50.836;4.330;2022-09-09T06:34:03;18.00;99.90
23120;DHT22;11729;50.836;4.330;2022-09-09T06:36:31;17.80;99.90
23120;DHT22;11729;50.836;4.330;2022-09-09T06:38:56;17.90;99.90
23120;DHT22;11729;50.836;4.330;2022-09-09T06:41:23;18.00;99.90
23120;DHT22;11729;50.836;4.330;2022-09-09T06:43:50;17.90;99.90
23120;DHT22;11729;50.836;4.330;2022-09-09T06:46:16;17.90;99.90
23120;DHT22;11729;50.836;4.330;2022-09-09T06:48:42;17.80;99.90
23120;DHT22;11729;50.836;4.330;2022-09-09T06:51:16;17.60;99.90
23120;DHT22;11729;50.836;4.330;2022-09-09T06:53:43;17.70;99.90
23120;DHT22;11729;50.836;4.330;2022-09-09T06:58:35;18.10;99.90
23120;DHT22;11729;50.836;4.330;2022-09-09T07:01:11;18.10;99.90
23120;DHT22;11729;50.836;4.330;2022-09-09T07:03:38;18.00;99.90
23120;DHT22;11729;50.836;4.330;2022-09-09T07:06:04;18.10;99.90
23120;DHT22;11729;50.836;4.330;2022-09-09T07:08:30;18.20;99.90
23120;DHT22;11729;50.836;4.330;2022-09-09T07:11:06;18.20;99.90
23120;DHT22;11729;50.836;4.330;2022-09-09T07:13:32;18.30;99.90
23120;DHT22;11729;50.836;4.330;2022-09-09T07:16:07;18.30;99.90
23120;DHT22;11729;50.836;4.330;2022-09-09T07:18:34;18.20;99.90
23120;DHT22;11729;50.836;4.330;2022-09-09T07:21:00;18.40;99.90
23120;DHT22;11729;50.836;4.330;2022-09-09T07:23:27;18.40;99.90
23120;DHT22;11729;50.836;4.330;2022-09-09T07:25:53;18.30;99.90
23120;DHT22;11729;50.836;4.330;2022-09-09T07:28:19;18.40;99.90
23120;DHT22;11729;50.836;4.330;2022-09-09T07:30:58;18.30;99.90
23120;DHT22;11729;50.836;4.330;2022-09-09T07:33:24;18.30;99.90
23120;DHT22;11729;50.836;4.330;2022-09-09T07:35:50;18.40;99.90
23120;DHT22;11729;50.836;4.330;2022-09-09T07:38:16;18.40;99.90
23120;DHT22;11729;50.836;4.330;2022-09-09T07:40:44;18.40;99.90
23120;DHT22;11729;50.836;4.330;2022-09-09T07:43:10;18.20;99.90
23120;DHT22;11729;50.836;4.330;2022-09-09T07:45:36;17.90;99.90
23120;DHT22;11729;50.836;4.330;2022-09-09T07:48:02;17.70;99.90
23120;DHT22;11729;50.836;4.330;2022-09-09T07:50:27;17.70;99.90
23120;DHT22;11729;50.836;4.330;2022-09-09T07:52:53;17.60;99.90
23120;DHT22;11729;50.836;4.330;2022-09-09T07:55:19;17.60;99.90
23120;DHT22;11729;50.836;4.330;2022-09-09T07:57:44;17.80;99.90
23120;DHT22;11729;50.836;4.330;2022-09-09T08:00:11;17.90;99.90
23120;DHT22;11729;50.836;4.330;2022-09-09T08:02:37;18.10;99.90
23120;DHT22;11729;50.836;4.330;2022-09-09T08:05:02;18.40;99.90
23120;DHT22;11729;50.836;4.330;2022-09-09T08:07:31;18.60;99.90
23120;DHT22;11729;50.836;4.330;2022-09-09T08:09:57;18.90;99.90
23120;DHT22;11729;50.836;4.330;2022-09-09T08:12:22;19.50;99.90
23120;DHT22;11729;50.836;4.330;2022-09-09T08:14:48;19.50;99.90
23120;DHT22;11729;50.836;4.330;2022-09-09T08:17:14;19.60;99.90
23120;DHT22;11729;50.836;4.330;2022-09-09T08:19:39;19.60;99.90
23120;DHT22;11729;50.836;4.330;2022-09-09T08:22:05;19.60;99.90
23120;DHT22;11729;50.836;4.330;2022-09-09T08:24:31;19.50;99.90
23120;DHT22;11729;50.836;4.330;2022-09-09T08:26:56;19.20;99.90
23120;DHT22;11729;50.836;4.330;2022-09-09T08:29:22;19.10;99.90
23120;DHT22;11729;50.836;4.330;2022-09-09T08:34:14;19.20;99.90
23120;DHT22;11729;50.836;4.330;2022-09-09T08:36:44;19.20;99.90
23120;DHT22;11729;50.836;4.330;2022-09-09T08:39:11;19.10;99.90
23120;DHT22;11729;50.836;4.330;2022-09-09T08:41:50;19.00;99.90
23120;DHT22;11729;50.836;4.330;2022-09-09T08:44:42;18.80;99.90
23120;DHT22;11729;50.836;4.330;2022-09-09T08:52:16;18.20;99.90
23120;DHT22;11729;50.836;4.330;2022-09-09T08:54:44;18.30;99.90
23120;DHT22;11729;50.836;4.330;2022-09-09T08:57:28;18.20;99.90
23120;DHT22;11729;50.836;4.330;2022-09-09T08:59:57;18.30;99.90
23120;DHT22;11729;50.836;4.330;2022-09-09T09:04:52;18.20;99.90
23120;DHT22;11729;50.836;4.330;2022-09-09T09:09:51;17.90;99.90
23120;DHT22;11729;50.836;4.330;2022-09-09T09:12:24;17.90;99.90
23120;DHT22;11729;50.836;4.330;2022-09-09T09:14:50;17.90;99.90
23120;DHT22;11729;50.836;4.330;2022-09-09T09:19:42;17.70;99.90
23120;DHT22;11729;50.836;4.330;2022-09-09T09:22:21;17.60;99.90
23120;DHT22;11729;50.836;4.330;2022-09-09T09:27:30;17.60;99.90
23120;DHT22;11729;50.836;4.330;2022-09-09T09:29:56;17.50;99.90
23120;DHT22;11729;50.836;4.330;2022-09-09T09:32:23;17.40;99.90
23120;DHT22;11729;50.836;4.330;2022-09-09T09:34:56;17.40;99.90
23120;DHT22;11729;50.836;4.330;2022-09-09T09:37:26;17.40;99.90
23120;DHT22;11729;50.836;4.330;2022-09-09T09:39:53;17.40;99.90
23120;DHT22;11729;50.836;4.330;2022-09-09T09:42:19;17.30;99.90
23120;DHT22;11729;50.836;4.330;2022-09-09T09:44:44;17.20;99.90
23120;DHT22;11729;50.836;4.330;2022-09-09T09:47:20;17.20;99.90
23120;DHT22;11729;50.836;4.330;2022-09-09T09:49:56;17.20;99.90
23120;DHT22;11729;50.836;4.330;2022-09-09T09:52:25;17.20;99.90
23120;DHT22;11729;50.836;4.330;2022-09-09T09:54:51;17.30;99.90
23120;DHT22;11729;50.836;4.330;2022-09-09T09:57:17;17.40;99.90
23120;DHT22;11729;50.836;4.330;2022-09-09T09:59:43;17.70;99.90
23120;DHT22;11729;50.836;4.330;2022-09-09T10:02:22;17.80;99.90
23120;DHT22;11729;50.836;4.330;2022-09-09T10:13:26;17.80;99.90
23120;DHT22;11729;50.836;4.330;2022-09-09T10:15:58;17.90;99.90
23120;DHT22;11729;50.836;4.330;2022-09-09T10:26:44;18.20;99.90
23120;DHT22;11729;50.836;4.330;2022-09-09T10:36:44;19.20;99.90
23120;DHT22;11729;50.836;4.330;2022-09-09T10:39:18;19.70;99.90
23120;DHT22;11729;50.836;4.330;2022-09-09T10:44:21;20.20;99.90
23120;DHT22;11729;50.836;4.330;2022-09-09T10:56:57;20.90;99.90
23120;DHT22;11729;50.836;4.330;2022-09-09T10:59:25;21.10;99.90
23120;DHT22;11729;50.836;4.330;2022-09-09T11:06:50;21.50;99.90
23120;DHT22;11729;50.836;4.330;2022-09-09T11:09:18;21.60;99.90
23120;DHT22;11729;50.836;4.330;2022-09-09T11:11:52;21.50;99.90
23120;DHT22;11729;50.836;4.330;2022-09-09T11:16:55;21.20;99.90
23120;DHT22;11729;50.836;4.330;2022-09-09T11:19:26;21.00;99.90
23120;DHT22;11729;50.836;4.330;2022-09-09T11:21:53;21.30;99.90
23120;DHT22;11729;50.836;4.330;2022-09-09T11:29:31;21.10;99.90
23120;DHT22;11729;50.836;4.330;2022-09-09T11:34:36;20.90;99.90
23120;DHT22;11729;50.836;4.330;2022-09-09T11:42:29;20.60;99.90
23120;DHT22;11729;50.836;4.330;2022-09-09T11:44:55;20.70;99.90
23120;DHT22;11729;50.836;4.330;2022-09-09T11:49:49;20.80;99.90
23120;DHT22;11729;50.836;4.330;2022-09-09T11:52:22;20.60;99.90
23120;DHT22;11729;50.836;4.330;2022-09-09T11:54:48;20.50;99.90
23120;DHT22;11729;50.836;4.330;2022-09-09T11:57:35;20.50;99.90
23120;DHT22;11729;50.836;4.330;2022-09-09T12:00:01;20.40;99.90
23120;DHT22;11729;50.836;4.330;2022-09-09T12:02:27;20.60;99.90
23120;DHT22;11729;50.836;4.330;2022-09-09T12:09:49;20.50;99.90
23120;DHT22;11729;50.836;4.330;2022-09-09T12:17:37;20.10;99.90
23120;DHT22;11729;50.836;4.330;2022-09-09T12:22:37;20.00;99.90
23120;DHT22;11729;50.836;4.330;2022-09-09T12:26:47;20.10;99.90
23120;DHT22;11729;50.836;4.330;2022-09-09T12:29:24;20.30;99.90
23120;DHT22;11729;50.836;4.330;2022-09-09T12:32:11;20.40;99.90
23120;DHT22;11729;50.836;4.330;2022-09-09T12:34:40;20.50;99.90
23120;DHT22;11729;50.836;4.330;2022-09-09T12:37:18;20.70;99.90
23120;DHT22;11729;50.836;4.330;2022-09-09T12:39:55;20.80;99.90
23120;DHT22;11729;50.836;4.330;2022-09-09T12:42:22;20.90;99.90
23120;DHT22;11729;50.836;4.330;2022-09-09T12:44:59;21.00;99.90
23120;DHT22;11729;50.836;4.330;2022-09-09T12:47:40;21.10;99.90
23120;DHT22;11729;50.836;4.330;2022-09-09T12:50:19;21.20;99.90
23120;DHT22;11729;50.836;4.330;2022-09-09T12:52:48;21.10;99.90
23120;DHT22;11729;50.836;4.330;2022-09-09T12:55:19;21.00;99.90
23120;DHT22;11729;50.836;4.330;2022-09-09T12:57:48;21.20;99.90
23120;DHT22;11729;50.836;4.330;2022-09-09T13:00:22;21.40;99.90
23120;DHT22;11729;50.836;4.330;2022-09-09T13:02:57;21.60;99.90
23120;DHT22;11729;50.836;4.330;2022-09-09T13:05:35;21.80;99.90
23120;DHT22;11729;50.836;4.330;2022-09-09T13:08:06;22.00;99.90
23120;DHT22;11729;50.836;4.330;2022-09-09T13:10:39;21.80;99.90
23120;DHT22;11729;50.836;4.330;2022-09-09T13:13:14;21.60;99.90
23120;DHT22;11729;50.836;4.330;2022-09-09T13:15:52;21.70;99.90
23120;DHT22;11729;50.836;4.330;2022-09-09T13:18:23;21.90;99.90
23120;DHT22;11729;50.836;4.330;2022-09-09T13:20:50;22.10;99.90
23120;DHT22;11729;50.836;4.330;2022-09-09T13:23:21;22.10;99.90
23120;DHT22;11729;50.836;4.330;2022-09-09T13:26:04;22.10;99.90
23120;DHT22;11729;50.836;4.330;2022-09-09T13:28:31;22.00;99.90
23120;DHT22;11729;50.836;4.330;2022-09-09T13:33:32;22.20;99.90
23120;DHT22;11729;50.836;4.330;2022-09-09T13:36:04;22.30;99.90
23120;DHT22;11729;50.836;4.330;2022-09-09T13:38:37;22.20;99.90
23120;DHT22;11729;50.836;4.330;2022-09-09T13:41:23;22.00;99.90
23120;DHT22;11729;50.836;4.330;2022-09-09T13:43:50;21.80;99.90
23120;DHT22;11729;50.836;4.330;2022-09-09T13:51:43;23.60;99.90
23120;DHT22;11729;50.836;4.330;2022-09-09T13:54:13;23.60;99.90
23120;DHT22;11729;50.836;4.330;2022-09-09T13:56:40;23.60;99.90
23120;DHT22;11729;50.836;4.330;2022-09-09T13:59:11;23.20;99.90
23120;DHT22;11729;50.836;4.330;2022-09-09T14:01:37;23.20;99.90
23120;DHT22;11729;50.836;4.330;2022-09-09T14:04:03;23.40;99.90
23120;DHT22;11729;50.836;4.330;2022-09-09T14:06:29;23.40;99.90
23120;DHT22;11729;50.836;4.330;2022-09-09T14:08:55;23.40;99.90
23120;DHT22;11729;50.836;4.330;2022-09-09T14:11:21;23.10;99.90
23120;DHT22;11729;50.836;4.330;2022-09-09T14:13:47;23.00;99.90
23120;DHT22;11729;50.836;4.330;2022-09-09T14:16:16;22.90;99.90
23120;DHT22;11729;50.836;4.330;2022-09-09T14:18:41;23.00;99.90
23120;DHT22;11729;50.836;4.330;2022-09-09T14:21:07;22.80;99.90
23120;DHT22;11729;50.836;4.330;2022-09-09T14:23:34;22.80;99.90
23120;DHT22;11729;50.836;4.330;2022-09-09T14:25:59;22.40;99.90
23120;DHT22;11729;50.836;4.330;2022-09-09T14:28:25;22.30;99.90
23120;DHT22;11729;50.836;4.330;2022-09-09T14:30:51;22.20;99.90
23120;DHT22;11729;50.836;4.330;2022-09-09T14:33:17;22.00;99.90
23120;DHT22;11729;50.836;4.330;2022-09-09T14:35:43;21.80;99.90
23120;DHT22;11729;50.836;4.330;2022-09-09T14:38:09;22.10;99.90
23120;DHT22;11729;50.836;4.330;2022-09-09T14:40:36;22.20;99.90
23120;DHT22;11729;50.836;4.330;2022-09-09T14:43:03;22.20;99.90
23120;DHT22;11729;50.836;4.330;2022-09-09T14:45:30;22.20;99.90
23120;DHT22;11729;50.836;4.330;2022-09-09T14:47:55;22.20;99.90
23120;DHT22;11729;50.836;4.330;2022-09-09T14:50:22;22.30;99.90
23120;DHT22;11729;50.836;4.330;2022-09-09T14:52:48;22.30;99.90
23120;DHT22;11729;50.836;4.330;2022-09-09T14:55:14;22.40;99.90
23120;DHT22;11729;50.836;4.330;2022-09-09T14:57:41;22.50;99.90
23120;DHT22;11729;50.836;4.330;2022-09-09T15:00:09;22.50;99.90
23120;DHT22;11729;50.836;4.330;2022-09-09T15:02:36;22.60;99.90
23120;DHT22;11729;50.836;4.330;2022-09-09T15:05:06;22.40;99.90
23120;DHT22;11729;50.836;4.330;2022-09-09T15:07:31;22.30;99.90
23120;DHT22;11729;50.836;4.330;2022-09-09T15:09:57;22.30;99.90
23120;DHT22;11729;50.836;4.330;2022-09-09T15:12:24;22.30;99.90
23120;DHT22;11729;50.836;4.330;2022-09-09T15:14:49;22.40;99.90
23120;DHT22;11729;50.836;4.330;2022-09-09T15:17:16;22.40;99.90
23120;DHT22;11729;50.836;4.330;2022-09-09T15:19:42;22.50;99.90
23120;DHT22;11729;50.836;4.330;2022-09-09T15:22:08;22.50;99.90
23120;DHT22;11729;50.836;4.330;2022-09-09T15:24:34;22.50;99.90
23120;DHT22;11729;50.836;4.330;2022-09-09T15:27:00;22.30;99.90
23120;DHT22;11729;50.836;4.330;2022-09-09T15:29:28;22.20;99.90
23120;DHT22;11729;50.836;4.330;2022-09-09T15:31:54;22.00;99.90
23120;DHT22;11729;50.836;4.330;2022-09-09T15:34:20;21.90;99.90
23120;DHT22;11729;50.836;4.330;2022-09-09T15:36:46;21.70;99.90
23120;DHT22;11729;50.836;4.330;2022-09-09T15:39:16;21.60;99.90
23120;DHT22;11729;50.836;4.330;2022-09-09T15:41:43;21.60;99.90
23120;DHT22;11729;50.836;4.330;2022-09-09T15:44:10;21.70;99.90
23120;DHT22;11729;50.836;4.330;2022-09-09T15:46:49;21.60;99.90
23120;DHT22;11729;50.836;4.330;2022-09-09T15:49:20;21.70;99.90
23120;DHT22;11729;50.836;4.330;2022-09-09T15:51:54;21.70;99.90
23120;DHT22;11729;50.836;4.330;2022-09-09T15:54:21;21.60;99.90
23120;DHT22;11729;50.836;4.330;2022-09-09T15:56:54;21.70;99.90
23120;DHT22;11729;50.836;4.330;2022-09-09T15:59:22;21.80;99.90
23120;DHT22;11729;50.836;4.330;2022-09-09T16:01:48;21.70;99.90
23120;DHT22;11729;50.836;4.330;2022-09-09T16:04:19;21.60;99.90
23120;DHT22;11729;50.836;4.330;2022-09-09T16:07:09;21.60;99.90
23120;DHT22;11729;50.836;4.330;2022-09-09T16:09:35;21.50;99.90
23120;DHT22;11729;50.836;4.330;2022-09-09T16:12:01;21.50;99.90
23120;DHT22;11729;50.836;4.330;2022-09-09T16:14:28;21.50;99.90
23120;DHT22;11729;50.836;4.330;2022-09-09T16:16:54;21.20;99.90
23120;DHT22;11729;50.836;4.330;2022-09-09T16:19:20;21.10;99.90
23120;DHT22;11729;50.836;4.330;2022-09-09T16:21:48;21.10;99.90
23120;DHT22;11729;50.836;4.330;2022-09-09T16:24:17;21.20;99.90
23120;DHT22;11729;50.836;4.330;2022-09-09T16:26:48;21.10;99.90
23120;DHT22;11729;50.836;4.330;2022-09-09T16:29:14;20.90;99.90
23120;DHT22;11729;50.836;4.330;2022-09-09T16:31:40;20.10;99.90
23120;DHT22;11729;50.836;4.330;2022-09-09T16:34:07;19.60;99.90
23120;DHT22;11729;50.836;4.330;2022-09-09T16:36:34;19.50;99.90
23120;DHT22;11729;50.836;4.330;2022-09-09T16:39:04;19.40;99.90
23120;DHT22;11729;50.836;4.330;2022-09-09T16:41:31;19.50;99.90
23120;DHT22;11729;50.836;4.330;2022-09-09T16:44:01;19.60;99.90
23120;DHT22;11729;50.836;4.330;2022-09-09T16:46:32;19.70;99.90
23120;DHT22;11729;50.836;4.330;2022-09-09T16:49:00;19.80;99.90
23120;DHT22;11729;50.836;4.330;2022-09-09T16:51:32;19.90;99.90
23120;DHT22;11729;50.836;4.330;2022-09-09T16:53:59;20.20;99.90
23120;DHT22;11729;50.836;4.330;2022-09-09T16:56:28;20.40;99.90
23120;DHT22;11729;50.836;4.330;2022-09-09T16:59:00;20.40;99.90
23120;DHT22;11729;50.836;4.330;2022-09-09T17:01:31;20.50;99.90
23120;DHT22;11729;50.836;4.330;2022-09-09T17:04:00;20.40;99.90
23120;DHT22;11729;50.836;4.330;2022-09-09T17:06:30;20.40;99.90
23120;DHT22;11729;50.836;4.330;2022-09-09T17:08:56;20.30;99.90
23120;DHT22;11729;50.836;4.330;2022-09-09T17:11:22;20.30;99.90
23120;DHT22;11729;50.836;4.330;2022-09-09T17:13:49;20.50;99.90
23120;DHT22;11729;50.836;4.330;2022-09-09T17:16:19;20.50;99.90
23120;DHT22;11729;50.836;4.330;2022-09-09T17:18:47;20.40;99.90
23120;DHT22;11729;50.836;4.330;2022-09-09T17:21:17;20.20;99.90
23120;DHT22;11729;50.836;4.330;2022-09-09T17:23:43;20.00;99.90
23120;DHT22;11729;50.836;4.330;2022-09-09T17:26:12;19.70;99.90
23120;DHT22;11729;50.836;4.330;2022-09-09T17:28:38;19.70;99.90
23120;DHT22;11729;50.836;4.330;2022-09-09T17:31:06;19.60;99.90
23120;DHT22;11729;50.836;4.330;2022-09-09T17:33:39;19.50;99.90
23120;DHT22;11729;50.836;4.330;2022-09-09T17:38:37;19.40;99.90
23120;DHT22;11729;50.836;4.330;2022-09-09T17:41:10;19.30;99.90
23120;DHT22;11729;50.836;4.330;2022-09-09T17:43:37;19.30;99.90
23120;DHT22;11729;50.836;4.330;2022-09-09T17:46:36;19.00;99.90
23120;DHT22;11729;50.836;4.330;2022-09-09T17:49:13;19.00;99.90
23120;DHT22;11729;50.836;4.330;2022-09-09T17:51:40;19.00;99.90
23120;DHT22;11729;50.836;4.330;2022-09-09T17:54:18;19.00;99.90
23120;DHT22;11729;50.836;4.330;2022-09-09T17:56:44;19.00;99.90
23120;DHT22;11729;50.836;4.330;2022-09-09T17:59:12;18.90;99.90
23120;DHT22;11729;50.836;4.330;2022-09-09T18:01:40;18.80;99.90
23120;DHT22;11729;50.836;4.330;2022-09-09T18:04:08;18.90;99.90
23120;DHT22;11729;50.836;4.330;2022-09-09T18:06:35;18.80;99.90